Time;durP1;ratioP1;P1;durP2;ratioP2;P2;SDS_P1;SDS_P2;PMS_P1;PMS_P2;Temp;Humidity;BMP_temperature;BMP_pressure;BME280_temperature;BME280_humidity;BME280_pressure;Samples;Min_cycle;Max_cycle;Signal;HPM_P1;HPM_P2
2022/11/27 00:01:12;;;;;;;8.43;2.80;;;7.40;99.90;;;;;;5037170;28;20272;-57
2022/11/27 00:03:40;;;;;;;5.83;3.07;;;7.40;99.90;;;;;;5035409;28;20221;-56
2022/11/27 00:06:15;;;;;;;7.73;2.67;;;7.40;99.90;;;;;;5037194;28;20234;-55
2022/11/27 00:08:43;;;;;;;5.13;2.30;;;7.30;99.90;;;;;;5035214;28;20203;-56
2022/11/27 00:11:13;;;;;;;10.77;2.70;;;7.30;99.90;;;;;;5036710;28;20229;-57
2022/11/27 00:13:40;;;;;;;8.67;3.37;;;7.20;99.90;;;;;;5036524;28;20199;-55
2022/11/27 00:16:08;;;;;;;6.77;3.10;;;7.20;99.90;;;;;;5033830;28;20234;-56
2022/11/27 00:18:35;;;;;;;7.00;2.60;;;7.20;99.90;;;;;;5033126;28;20216;-56
2022/11/27 00:21:11;;;;;;;6.27;2.37;;;7.20;99.90;;;;;;5035741;28;20232;-56
2022/11/27 00:23:38;;;;;;;11.73;2.60;;;7.30;99.90;;;;;;5032852;28;20231;-55
2022/11/27 00:26:06;;;;;;;8.50;3.00;;;7.30;99.90;;;;;;5035521;28;20197;-56
2022/11/27 00:28:33;;;;;;;6.43;2.67;;;7.20;99.90;;;;;;5034257;28;20203;-58
2022/11/27 00:31:02;;;;;;;9.60;3.30;;;7.20;99.90;;;;;;5037247;28;20223;-56
2022/11/27 00:33:29;;;;;;;7.80;2.10;;;7.20;99.90;;;;;;5036235;28;20200;-56
2022/11/27 00:36:00;;;;;;;10.13;2.60;;;7.20;99.90;;;;;;5034310;28;20195;-56
2022/11/27 00:38:27;;;;;;;7.67;2.47;;;7.10;99.90;;;;;;5032431;28;20203;-56
2022/11/27 00:40:57;;;;;;;6.67;2.97;;;7.10;99.90;;;;;;5037137;28;20210;-56
2022/11/27 00:43:23;;;;;;;4.70;2.30;;;7.20;99.90;;;;;;5034058;28;20292;-56
2022/11/27 00:45:50;;;;;;;8.27;2.20;;;7.10;99.90;;;;;;5038710;28;20231;-56
2022/11/27 00:48:17;;;;;;;6.37;2.13;;;7.10;99.90;;;;;;5034098;28;20274;-56
2022/11/27 00:50:44;;;;;;;5.77;2.50;;;7.10;99.90;;;;;;5032719;28;20698;-56
2022/11/27 00:53:11;;;;;;;8.93;2.53;;;7.20;99.90;;;;;;5032614;28;20207;-57
2022/11/27 00:55:38;;;;;;;6.73;2.27;;;7.00;99.90;;;;;;5034637;28;20242;-56
2022/11/27 00:58:04;;;;;;;4.03;2.17;;;7.00;99.90;;;;;;5033289;28;20197;-56
2022/11/27 01:00:31;;;;;;;3.43;2.23;;;7.10;99.90;;;;;;5033284;28;20616;-57
2022/11/27 01:02:58;;;;;;;5.80;2.57;;;7.00;99.90;;;;;;5035749;28;20264;-56
2022/11/27 01:05:25;;;;;;;6.63;2.07;;;7.10;99.90;;;;;;5031588;28;20204;-56
2022/11/27 01:07:52;;;;;;;3.77;2.10;;;7.10;99.90;;;;;;5031965;28;20208;-55
2022/11/27 01:10:19;;;;;;;8.10;2.13;;;7.10;99.90;;;;;;5037168;28;20286;-55
2022/11/27 01:12:48;;;;;;;6.73;2.03;;;7.00;99.90;;;;;;5036150;28;20213;-56
2022/11/27 01:15:15;;;;;;;8.43;2.50;;;7.00;99.90;;;;;;5037352;28;20208;-61
2022/11/27 01:17:42;;;;;;;6.50;2.40;;;7.10;99.90;;;;;;5036628;28;20197;-56
2022/11/27 01:20:09;;;;;;;8.87;2.87;;;7.00;99.90;;;;;;5033548;28;20206;-55
2022/11/27 01:22:36;;;;;;;6.37;2.67;;;7.00;99.90;;;;;;5037197;28;20286;-56
2022/11/27 01:25:04;;;;;;;10.37;2.90;;;7.00;99.90;;;;;;5019286;28;20250;-55
2022/11/27 01:27:30;;;;;;;4.97;2.40;;;6.90;99.90;;;;;;5034384;28;20208;-55
2022/11/27 01:29:57;;;;;;;6.30;2.97;;;7.00;99.90;;;;;;5036241;28;20216;-55
2022/11/27 01:32:24;;;;;;;9.10;3.53;;;7.00;99.90;;;;;;5041129;28;20288;-58
2022/11/27 01:34:51;;;;;;;7.70;3.07;;;7.00;99.90;;;;;;5038273;28;20291;-55
2022/11/27 01:37:20;;;;;;;6.80;3.20;;;7.00;99.90;;;;;;5038548;28;20201;-56
2022/11/27 01:39:46;;;;;;;6.70;2.70;;;7.00;99.90;;;;;;5038279;28;21169;-56
2022/11/27 01:42:13;;;;;;;4.50;2.60;;;7.00;99.90;;;;;;5022630;28;20210;-56
2022/11/27 01:44:51;;;;;;;9.57;2.67;;;7.00;99.90;;;;;;5039511;28;20205;-56
2022/11/27 01:47:35;;;;;;;6.60;2.60;;;7.00;99.90;;;;;;5038680;28;20206;-56
2022/11/27 01:50:10;;;;;;;11.43;2.80;;;7.00;99.90;;;;;;5039622;28;20319;-54
2022/11/27 01:52:40;;;;;;;8.73;3.57;;;7.00;99.90;;;;;;5038844;28;20214;-55
2022/11/27 01:55:11;;;;;;;6.33;2.47;;;7.00;99.90;;;;;;5039290;28;20652;-55
2022/11/27 01:57:52;;;;;;;10.07;3.33;;;7.10;99.90;;;;;;5037525;28;20194;-56
2022/11/27 02:00:19;;;;;;;10.03;2.80;;;7.00;99.90;;;;;;5040089;28;20212;-55
2022/11/27 02:02:46;;;;;;;8.07;3.00;;;7.00;99.90;;;;;;5041429;28;20200;-56
2022/11/27 02:05:18;;;;;;;9.83;3.57;;;7.00;99.90;;;;;;5038504;28;20212;-55
2022/11/27 02:07:46;;;;;;;9.53;3.57;;;7.10;99.90;;;;;;5033991;28;20214;-55
2022/11/27 02:10:14;;;;;;;8.53;3.23;;;7.00;99.90;;;;;;5033519;28;20242;-55
2022/11/27 02:12:48;;;;;;;6.30;2.87;;;7.00;99.90;;;;;;5034491;28;20665;-55
2022/11/27 02:15:24;;;;;;;5.87;2.63;;;7.00;99.90;;;;;;5037739;28;20502;-55
2022/11/27 02:17:57;;;;;;;6.93;2.40;;;7.00;99.90;;;;;;5035797;28;20291;-55
2022/11/27 02:20:36;;;;;;;7.70;3.20;;;6.90;99.90;;;;;;5038026;28;20287;-55
2022/11/27 02:23:28;;;;;;;6.37;2.97;;;6.90;99.90;;;;;;5039919;28;20208;-55
2022/11/27 02:26:28;;;;;;;11.17;3.10;;;6.90;99.90;;;;;;5039523;28;20213;-55
2022/11/27 02:29:03;;;;;;;7.60;2.83;;;6.80;99.90;;;;;;5034819;28;20204;-55
2022/11/27 02:31:43;;;;;;;8.73;3.07;;;6.90;99.90;;;;;;5032216;28;20277;-55
2022/11/27 02:34:41;;;;;;;9.47;3.13;;;6.80;99.90;;;;;;5034621;28;20211;-56
2022/11/27 02:37:21;;;;;;;11.03;3.10;;;6.90;99.90;;;;;;5035854;28;20564;-55
2022/11/27 02:39:57;;;;;;;9.53;3.40;;;6.80;99.90;;;;;;5034225;28;20210;-55
2022/11/27 02:42:27;;;;;;;7.87;3.30;;;6.70;99.90;;;;;;5028862;28;21252;-55
2022/11/27 02:45:01;;;;;;;7.97;2.80;;;6.70;99.90;;;;;;5031924;28;20208;-55
2022/11/27 02:47:29;;;;;;;8.43;3.13;;;6.70;99.90;;;;;;5031308;28;20296;-55
2022/11/27 02:49:58;;;;;;;6.40;3.40;;;6.80;99.90;;;;;;5029543;28;20331;-56
2022/11/27 02:52:26;;;;;;;8.47;3.17;;;6.60;99.90;;;;;;5027478;28;20196;-55
2022/11/27 02:54:56;;;;;;;7.60;3.43;;;6.70;99.90;;;;;;5030272;28;20217;-56
2022/11/27 02:57:24;;;;;;;12.27;3.43;;;6.70;99.90;;;;;;5028753;28;20313;-55
2022/11/27 02:59:54;;;;;;;14.43;4.10;;;6.70;99.90;;;;;;5027300;28;20223;-55
2022/11/27 03:02:33;;;;;;;10.30;3.20;;;6.70;99.90;;;;;;5031135;28;20297;-54
2022/11/27 03:05:04;;;;;;;9.00;3.17;;;6.70;99.90;;;;;;5027672;28;20218;-56
2022/11/27 03:07:37;;;;;;;8.30;3.47;;;6.70;99.90;;;;;;5027278;28;20267;-56
2022/11/27 03:10:16;;;;;;;7.20;3.13;;;6.80;99.90;;;;;;5028141;28;20234;-56
2022/11/27 03:12:44;;;;;;;10.47;3.67;;;6.70;99.90;;;;;;5027216;28;21688;-56
2022/11/27 03:15:11;;;;;;;6.37;3.37;;;6.60;99.90;;;;;;5024813;28;20224;-56
2022/11/27 03:18:01;;;;;;;7.27;3.43;;;6.70;99.90;;;;;;5030900;28;20663;-56
2022/11/27 03:20:37;;;;;;;11.23;3.87;;;6.60;99.90;;;;;;5028961;28;20208;-55
2022/11/27 03:23:04;;;;;;;7.47;3.13;;;6.70;99.90;;;;;;5027632;28;20573;-55
2022/11/27 03:25:31;;;;;;;11.37;4.53;;;6.70;99.90;;;;;;5012864;28;20212;-54
2022/11/27 03:28:02;;;;;;;6.17;3.63;;;6.60;99.90;;;;;;5027528;28;20196;-55
2022/11/27 03:30:29;;;;;;;7.77;3.27;;;6.70;99.90;;;;;;5027988;28;20759;-57
2022/11/27 03:32:56;;;;;;;10.07;3.67;;;6.60;99.90;;;;;;5032017;28;20625;-60
2022/11/27 03:35:25;;;;;;;13.97;4.07;;;6.60;99.90;;;;;;5027331;28;20203;-56
2022/11/27 03:37:53;;;;;;;7.63;3.40;;;6.70;99.90;;;;;;5027547;28;20235;-60
2022/11/27 03:40:31;;;;;;;9.47;3.67;;;6.70;99.90;;;;;;5028831;28;20290;-55
2022/11/27 03:43:21;;;;;;;8.73;3.10;;;6.70;99.90;;;;;;5031226;28;20750;-55
2022/11/27 03:45:56;;;;;;;7.83;3.60;;;6.60;99.90;;;;;;5025949;28;20218;-55
2022/11/27 03:48:35;;;;;;;11.07;3.93;;;6.60;99.90;;;;;;5026907;28;20535;-55
2022/11/27 03:51:40;;;;;;;7.97;3.57;;;6.60;99.90;;;;;;5023389;28;20250;-55
2022/11/27 03:54:34;;;;;;;6.20;3.07;;;6.60;99.90;;;;;;5026777;28;20947;-55
2022/11/27 03:57:13;;;;;;;8.17;3.37;;;6.70;99.90;;;;;;5028665;28;20212;-55
2022/11/27 03:59:44;;;;;;;8.10;3.43;;;6.70;99.90;;;;;;5027568;28;20619;-55
2022/11/27 04:02:16;;;;;;;7.57;3.33;;;6.60;99.90;;;;;;5028668;28;20246;-55
2022/11/27 04:04:43;;;;;;;5.37;3.17;;;6.70;99.90;;;;;;5026454;28;20909;-55
2022/11/27 04:07:16;;;;;;;5.70;3.10;;;6.60;99.90;;;;;;5028302;28;20876;-55
2022/11/27 04:09:43;;;;;;;7.27;3.40;;;6.60;99.90;;;;;;5025888;28;20794;-55
2022/11/27 04:12:10;;;;;;;8.17;3.47;;;6.50;99.90;;;;;;5028040;28;20238;-61
2022/11/27 04:14:37;;;;;;;7.53;2.73;;;6.60;99.90;;;;;;5028578;28;21125;-55
2022/11/27 04:17:04;;;;;;;5.30;2.77;;;6.60;99.90;;;;;;5029562;28;21340;-55
2022/11/27 04:19:31;;;;;;;6.77;2.83;;;6.60;99.90;;;;;;5047182;28;20326;-55
2022/11/27 04:21:58;;;;;;;5.63;2.90;;;6.70;99.90;;;;;;5051668;28;20522;-56
2022/11/27 04:24:25;;;;;;;4.77;2.80;;;6.60;99.90;;;;;;5048313;28;20268;-55
2022/11/27 04:26:51;;;;;;;8.03;3.30;;;6.60;99.90;;;;;;5052455;28;20251;-55
2022/11/27 04:29:18;;;;;;;5.60;2.27;;;6.70;99.90;;;;;;5046695;28;20297;-55
2022/11/27 04:31:45;;;;;;;4.23;3.10;;;6.70;99.90;;;;;;5062473;28;20222;-55
2022/11/27 04:34:12;;;;;;;7.00;3.20;;;6.70;99.90;;;;;;5051518;28;20234;-56
2022/11/27 04:36:39;;;;;;;6.87;2.87;;;6.80;99.90;;;;;;5049565;28;20206;-56
2022/11/27 04:39:06;;;;;;;9.53;3.40;;;6.80;99.90;;;;;;5058811;28;20292;-56
2022/11/27 04:41:33;;;;;;;5.33;2.53;;;6.80;99.90;;;;;;5048975;28;20298;-56
2022/11/27 04:44:00;;;;;;;3.87;2.30;;;6.80;99.90;;;;;;5049266;28;20285;-56
2022/11/27 04:46:26;;;;;;;5.43;2.60;;;6.70;99.90;;;;;;5062902;28;20233;-56
2022/11/27 04:48:53;;;;;;;4.77;2.73;;;6.70;99.90;;;;;;5048060;28;20218;-55
2022/11/27 04:51:20;;;;;;;6.30;2.63;;;6.70;99.90;;;;;;5047840;28;20752;-56
2022/11/27 04:53:47;;;;;;;6.90;2.47;;;6.70;99.90;;;;;;5050187;28;20688;-56
2022/11/27 04:56:14;;;;;;;6.67;2.63;;;6.70;99.90;;;;;;5049449;28;20273;-56
2022/11/27 04:58:40;;;;;;;5.00;2.33;;;6.70;99.90;;;;;;5052197;28;20312;-55
2022/11/27 05:01:08;;;;;;;6.60;3.23;;;6.70;99.90;;;;;;5055719;28;20224;-56
2022/11/27 05:03:35;;;;;;;4.37;2.50;;;6.70;99.90;;;;;;5056404;28;20206;-56
2022/11/27 05:06:02;;;;;;;5.00;2.43;;;6.70;99.90;;;;;;5055803;28;20203;-56
2022/11/27 05:08:32;;;;;;;5.07;2.13;;;6.70;99.90;;;;;;5052842;28;20739;-56
2022/11/27 05:10:59;;;;;;;4.63;1.97;;;6.70;99.90;;;;;;5054227;28;20571;-56
2022/11/27 05:13:26;;;;;;;4.00;2.07;;;6.70;99.90;;;;;;5069954;28;20652;-56
2022/11/27 05:15:53;;;;;;;7.63;2.60;;;6.80;99.90;;;;;;5049241;28;20258;-59
2022/11/27 05:18:20;;;;;;;5.83;2.43;;;6.70;99.90;;;;;;5033078;28;20199;-55
2022/11/27 05:20:47;;;;;;;4.50;2.17;;;6.70;99.90;;;;;;5036378;28;20224;-56
2022/11/27 05:23:14;;;;;;;3.57;2.30;;;6.70;99.90;;;;;;5034543;28;20260;-56
2022/11/27 05:25:41;;;;;;;4.13;2.13;;;6.80;99.90;;;;;;5033348;28;20272;-57
2022/11/27 05:28:08;;;;;;;5.50;3.13;;;6.70;99.90;;;;;;5035218;28;20632;-58
2022/11/27 05:30:35;;;;;;;3.83;2.13;;;6.70;99.90;;;;;;5035864;28;20221;-56
2022/11/27 05:33:02;;;;;;;5.50;2.43;;;6.70;99.90;;;;;;5037490;28;20506;-55
2022/11/27 05:35:28;;;;;;;5.10;2.30;;;6.70;99.90;;;;;;5041352;28;20680;-55
2022/11/27 05:37:55;;;;;;;6.57;2.70;;;6.70;99.90;;;;;;5035459;28;20675;-55
2022/11/27 05:40:22;;;;;;;5.87;2.00;;;6.80;99.90;;;;;;5037658;28;20652;-56
2022/11/27 05:42:49;;;;;;;7.77;2.70;;;6.80;99.90;;;;;;5035505;28;20766;-57
2022/11/27 05:45:16;;;;;;;4.67;2.60;;;6.90;99.90;;;;;;5034673;28;20195;-55
2022/11/27 05:47:43;;;;;;;4.83;2.33;;;6.80;99.90;;;;;;5033125;28;20203;-56
2022/11/27 05:50:10;;;;;;;6.70;2.13;;;6.80;99.90;;;;;;5035094;28;20879;-56
2022/11/27 05:52:36;;;;;;;3.30;2.10;;;6.80;99.90;;;;;;5037712;28;20689;-56
2022/11/27 05:55:05;;;;;;;3.33;2.03;;;6.70;99.90;;;;;;5036578;28;20640;-56
2022/11/27 05:57:32;;;;;;;6.97;2.13;;;6.80;99.90;;;;;;5036288;28;20202;-56
2022/11/27 05:59:59;;;;;;;7.13;2.83;;;6.70;99.90;;;;;;5036253;28;20678;-56
2022/11/27 06:02:26;;;;;;;13.13;2.60;;;6.70;99.90;;;;;;5030531;28;20212;-56
2022/11/27 06:04:55;;;;;;;5.00;2.60;;;6.80;99.90;;;;;;5032109;28;20274;-60
2022/11/27 06:07:22;;;;;;;5.13;2.17;;;6.80;99.90;;;;;;5032723;28;20299;-55
2022/11/27 06:09:49;;;;;;;6.57;2.37;;;6.80;99.90;;;;;;5032847;28;20218;-56
2022/11/27 06:12:15;;;;;;;5.43;2.07;;;6.80;99.90;;;;;;5037725;28;20208;-55
2022/11/27 06:14:42;;;;;;;5.07;2.43;;;6.70;99.90;;;;;;5039591;28;20625;-56
2022/11/27 06:17:09;;;;;;;5.30;2.00;;;6.60;99.90;;;;;;5040607;28;20694;-56
2022/11/27 06:19:36;;;;;;;5.13;2.00;;;6.70;99.90;;;;;;5035701;28;20655;-55
2022/11/27 06:22:03;;;;;;;7.93;2.50;;;6.70;99.90;;;;;;5040699;28;20585;-56
2022/11/27 06:24:30;;;;;;;8.17;2.60;;;6.70;99.90;;;;;;5039958;28;20222;-55
2022/11/27 06:26:57;;;;;;;4.03;2.30;;;6.80;99.90;;;;;;5040622;28;20229;-56
2022/11/27 06:29:23;;;;;;;3.50;2.00;;;6.80;99.90;;;;;;5039069;28;20694;-56
2022/11/27 06:31:50;;;;;;;4.77;2.33;;;6.80;99.90;;;;;;5041255;28;20689;-55
2022/11/27 06:34:17;;;;;;;8.03;3.13;;;6.70;99.90;;;;;;5041301;28;20211;-56
2022/11/27 06:36:45;;;;;;;7.53;2.33;;;6.70;99.90;;;;;;5039997;28;21149;-55
2022/11/27 06:39:12;;;;;;;5.97;2.13;;;6.90;99.90;;;;;;5037611;28;20222;-56
2022/11/27 06:41:39;;;;;;;3.57;2.10;;;6.80;99.90;;;;;;5038521;28;20212;-56
2022/11/27 06:44:06;;;;;;;5.33;2.33;;;6.70;99.90;;;;;;5039439;28;20265;-56
2022/11/27 06:46:32;;;;;;;4.03;2.10;;;6.70;99.90;;;;;;5041196;28;20246;-56
2022/11/27 06:49:00;;;;;;;5.43;2.03;;;6.70;99.90;;;;;;5035455;28;20212;-55
2022/11/27 06:51:29;;;;;;;5.70;2.80;;;6.80;99.90;;;;;;5041254;28;20216;-56
2022/11/27 06:53:57;;;;;;;4.87;2.63;;;6.80;99.90;;;;;;5038554;28;20226;-56
2022/11/27 06:56:26;;;;;;;5.10;2.70;;;6.80;99.90;;;;;;5038791;28;20198;-55
2022/11/27 06:58:59;;;;;;;7.80;2.70;;;6.70;99.90;;;;;;5037638;28;20568;-57
2022/11/27 07:01:27;;;;;;;5.13;2.03;;;6.80;99.90;;;;;;5030542;28;20668;-57
2022/11/27 07:03:55;;;;;;;4.00;2.43;;;6.80;99.90;;;;;;5038810;28;20221;-56
2022/11/27 07:06:24;;;;;;;5.23;2.20;;;6.80;99.90;;;;;;5034847;28;20229;-55
2022/11/27 07:08:53;;;;;;;5.87;2.53;;;6.70;99.90;;;;;;5037125;28;20212;-55
2022/11/27 07:11:23;;;;;;;8.70;2.20;;;6.70;99.90;;;;;;5038174;28;20263;-56
2022/11/27 07:13:52;;;;;;;4.57;2.50;;;6.70;99.90;;;;;;5038049;28;20272;-55
2022/11/27 07:16:19;;;;;;;3.63;2.07;;;6.70;99.90;;;;;;5037500;28;20278;-56
2022/11/27 07:18:49;;;;;;;4.60;2.40;;;6.70;99.90;;;;;;5037801;28;20632;-56
2022/11/27 07:21:16;;;;;;;9.30;3.00;;;6.70;99.90;;;;;;5036784;28;20202;-56
2022/11/27 07:23:44;;;;;;;3.97;2.20;;;6.70;99.90;;;;;;5037721;28;20310;-56
2022/11/27 07:26:14;;;;;;;7.17;2.30;;;6.60;99.90;;;;;;5020577;28;20215;-56
2022/11/27 07:28:44;;;;;;;9.47;2.73;;;6.50;99.90;;;;;;5036426;28;20281;-57
2022/11/27 07:31:20;;;;;;;4.83;2.57;;;6.60;99.90;;;;;;5035990;28;20346;-56
2022/11/27 07:33:47;;;;;;;5.63;2.03;;;6.60;99.90;;;;;;5038427;28;20199;-56
2022/11/27 07:36:20;;;;;;;4.80;2.30;;;6.60;99.90;;;;;;5036596;28;20216;-56
2022/11/27 07:38:47;;;;;;;6.07;2.63;;;6.70;99.90;;;;;;5036293;28;20595;-56
2022/11/27 07:41:15;;;;;;;5.43;2.77;;;6.80;99.90;;;;;;5034957;28;20219;-56
2022/11/27 07:43:43;;;;;;;5.03;2.73;;;6.60;99.90;;;;;;5030987;28;20369;-56
2022/11/27 07:46:19;;;;;;;5.00;2.47;;;6.70;99.90;;;;;;5030825;28;20212;-57
2022/11/27 07:48:46;;;;;;;6.97;2.50;;;6.60;99.90;;;;;;5036178;28;20260;-56
2022/11/27 07:51:16;;;;;;;4.50;2.30;;;6.70;99.90;;;;;;5034930;28;20253;-56
2022/11/27 07:53:43;;;;;;;5.60;2.80;;;6.70;99.90;;;;;;5038814;28;20701;-57
2022/11/27 07:56:12;;;;;;;8.90;2.90;;;6.70;99.90;;;;;;5036133;28;20660;-56
2022/11/27 07:58:39;;;;;;;5.90;2.37;;;6.70;99.90;;;;;;5035616;28;20200;-57
2022/11/27 08:01:08;;;;;;;7.50;2.50;;;6.60;99.90;;;;;;5037348;28;20250;-56
2022/11/27 08:03:36;;;;;;;5.23;2.70;;;6.60;99.90;;;;;;4676132;28;10000253;-56
2022/11/27 08:06:03;;;;;;;6.60;2.70;;;6.70;99.90;;;;;;5032256;28;20238;-56
2022/11/27 08:08:30;;;;;;;5.00;2.30;;;6.80;99.90;;;;;;5034017;28;20246;-56
2022/11/27 08:10:57;;;;;;;4.40;2.53;;;6.70;99.90;;;;;;5034532;28;20228;-56
2022/11/27 08:13:23;;;;;;;6.53;2.40;;;6.70;99.90;;;;;;5031936;28;20205;-57
2022/11/27 08:15:50;;;;;;;7.10;3.27;;;6.70;99.90;;;;;;5034121;28;20348;-56
2022/11/27 08:18:17;;;;;;;4.43;2.57;;;6.60;99.90;;;;;;5035587;28;20217;-62
2022/11/27 08:20:44;;;;;;;5.67;2.90;;;6.60;99.90;;;;;;5034037;28;20275;-56
2022/11/27 08:23:11;;;;;;;6.10;2.73;;;6.60;99.90;;;;;;5031675;28;20831;-56
2022/11/27 08:25:38;;;;;;;5.03;2.63;;;6.60;99.90;;;;;;5033552;28;20204;-56
2022/11/27 08:28:04;;;;;;;7.33;2.80;;;6.60;99.90;;;;;;5031101;28;20232;-56
2022/11/27 08:30:31;;;;;;;9.53;3.03;;;6.60;99.90;;;;;;5034178;28;20223;-56
2022/11/27 08:32:59;;;;;;;6.07;3.10;;;6.70;99.90;;;;;;5031855;28;20220;-56
2022/11/27 08:35:26;;;;;;;5.03;2.63;;;6.60;99.90;;;;;;5034222;28;20253;-56
2022/11/27 08:37:53;;;;;;;5.30;2.60;;;6.70;99.90;;;;;;5031323;28;20248;-56
2022/11/27 08:40:20;;;;;;;6.90;2.90;;;6.70;99.90;;;;;;5031852;28;20554;-56
2022/11/27 08:42:47;;;;;;;6.70;3.00;;;6.70;99.90;;;;;;5032993;28;20254;-56
2022/11/27 08:45:14;;;;;;;6.03;3.20;;;6.70;99.90;;;;;;5031073;28;20202;-56
2022/11/27 08:47:42;;;;;;;8.23;3.33;;;6.80;99.90;;;;;;5025809;28;20195;-56
2022/11/27 08:50:09;;;;;;;9.53;3.20;;;6.80;99.90;;;;;;5026209;28;20216;-56
2022/11/27 08:52:36;;;;;;;6.47;3.07;;;6.80;99.90;;;;;;5023915;28;20771;-59
2022/11/27 08:55:03;;;;;;;5.23;3.13;;;6.80;99.90;;;;;;5025316;28;20203;-56
2022/11/27 08:57:30;;;;;;;7.27;3.33;;;6.80;99.90;;;;;;5028587;28;20640;-56
2022/11/27 08:59:57;;;;;;;5.63;3.17;;;6.90;99.90;;;;;;5025998;28;20232;-56
2022/11/27 09:02:24;;;;;;;7.10;3.27;;;6.90;99.90;;;;;;5038733;28;20286;-56
2022/11/27 09:04:50;;;;;;;5.57;3.13;;;7.00;99.90;;;;;;5025536;28;20576;-56
2022/11/27 09:07:17;;;;;;;8.37;3.50;;;6.80;99.90;;;;;;5027395;28;20217;-56
2022/11/27 09:09:44;;;;;;;5.77;3.80;;;6.90;99.90;;;;;;5012491;28;20227;-56
2022/11/27 09:12:11;;;;;;;9.23;4.20;;;6.90;99.90;;;;;;5007007;28;20797;-56
2022/11/27 09:14:38;;;;;;;7.53;3.47;;;6.90;99.90;;;;;;5025837;28;20202;-57
2022/11/27 09:17:06;;;;;;;6.27;3.13;;;7.00;99.90;;;;;;5026369;28;20318;-56
2022/11/27 09:19:32;;;;;;;6.60;3.80;;;7.00;99.90;;;;;;5023684;28;20295;-56
2022/11/27 09:21:59;;;;;;;6.80;3.83;;;7.00;99.90;;;;;;5025434;28;20308;-55
2022/11/27 09:24:26;;;;;;;7.50;3.27;;;7.00;99.90;;;;;;5031476;28;20214;-56
2022/11/27 09:26:53;;;;;;;5.87;3.30;;;7.00;99.90;;;;;;5049973;28;20205;-56
2022/11/27 09:29:20;;;;;;;7.83;3.60;;;7.10;99.90;;;;;;5029941;28;20532;-56
2022/11/27 09:31:47;;;;;;;7.10;4.13;;;7.10;99.90;;;;;;5029481;28;20227;-57
2022/11/27 09:34:14;;;;;;;5.10;3.33;;;7.10;99.90;;;;;;5024611;28;20241;-56
2022/11/27 09:36:41;;;;;;;4.97;3.47;;;7.20;99.90;;;;;;5027935;28;20281;-56
2022/11/27 09:39:07;;;;;;;4.80;3.70;;;7.20;99.90;;;;;;5024292;28;20637;-56
2022/11/27 09:41:43;;;;;;;7.07;3.93;;;7.10;99.90;;;;;;5029403;28;20274;-56
2022/11/27 09:44:26;;;;;;;7.00;3.73;;;7.10;99.90;;;;;;5027146;28;20875;-56
2022/11/27 09:46:55;;;;;;;10.17;3.77;;;7.20;99.90;;;;;;5026312;28;20258;-56
2022/11/27 09:49:31;;;;;;;8.83;3.57;;;7.10;99.90;;;;;;5030090;28;20245;-57
2022/11/27 09:52:01;;;;;;;7.73;4.03;;;7.10;99.90;;;;;;5035529;28;20219;-56
2022/11/27 09:55:02;;;;;;;6.97;4.50;;;7.10;99.90;;;;;;5029673;28;20324;-56
2022/11/27 09:57:35;;;;;;;6.10;3.57;;;7.10;99.90;;;;;;5001608;28;20227;-56
2022/11/27 10:00:12;;;;;;;6.40;3.43;;;7.20;99.90;;;;;;5028168;28;20198;-57
2022/11/27 10:02:41;;;;;;;8.63;4.30;;;7.20;99.90;;;;;;5030047;28;20219;-57
2022/11/27 10:05:55;;;;;;;10.50;4.07;;;7.20;99.90;;;;;;5031099;28;20651;-56
2022/11/27 10:08:35;;;;;;;7.60;4.27;;;7.10;99.90;;;;;;5002494;28;20287;-56
2022/11/27 10:11:24;;;;;;;9.50;3.97;;;7.10;99.90;;;;;;5031340;28;20430;-64
2022/11/27 10:14:16;;;;;;;9.03;4.17;;;7.20;99.90;;;;;;5033601;28;21221;-56
2022/11/27 10:17:07;;;;;;;9.53;5.00;;;7.30;99.90;;;;;;5032631;28;20244;-65
2022/11/27 10:19:57;;;;;;;9.00;4.23;;;7.30;99.90;;;;;;5030952;28;20712;-56
2022/11/27 10:22:41;;;;;;;7.90;4.27;;;7.40;99.90;;;;;;5028888;28;20216;-56
2022/11/27 10:25:42;;;;;;;8.77;4.73;;;7.40;99.90;;;;;;5031287;28;20669;-55
2022/11/27 10:28:20;;;;;;;9.80;4.70;;;7.40;99.90;;;;;;5034577;28;20211;-56
2022/11/27 10:30:57;;;;;;;8.83;4.40;;;7.40;99.90;;;;;;5036000;28;20207;-56
2022/11/27 10:33:37;;;;;;;8.07;4.37;;;7.50;99.90;;;;;;5035050;28;20209;-56
2022/11/27 10:36:09;;;;;;;7.47;4.70;;;7.50;99.90;;;;;;5031023;28;20206;-56
2022/11/27 10:38:39;;;;;;;8.40;4.27;;;7.50;99.90;;;;;;5034877;28;20200;-56
2022/11/27 10:41:21;;;;;;;7.00;4.13;;;7.50;99.90;;;;;;5039445;28;20208;-56
2022/11/27 10:44:30;;;;;;;6.57;4.53;;;7.50;99.90;;;;;;5034177;28;20201;-56
2022/11/27 10:47:02;;;;;;;7.83;4.57;;;7.50;99.90;;;;;;5026965;28;20264;-56
2022/11/27 10:49:29;;;;;;;11.13;5.17;;;7.50;99.90;;;;;;5025367;28;20297;-56
2022/11/27 10:51:56;;;;;;;10.10;5.63;;;7.50;99.90;;;;;;5027115;28;20285;-56
2022/11/27 10:54:32;;;;;;;8.60;5.53;;;7.50;99.90;;;;;;5032803;28;20192;-57
2022/11/27 10:57:11;;;;;;;8.57;5.00;;;7.60;99.90;;;;;;5031212;28;20245;-56
2022/11/27 10:59:59;;;;;;;9.80;4.70;;;7.60;99.90;;;;;;5025119;28;20256;-58
2022/11/27 11:02:30;;;;;;;8.03;4.80;;;7.70;99.90;;;;;;5031711;28;20207;-56
2022/11/27 11:05:08;;;;;;;7.33;5.13;;;7.70;99.90;;;;;;5026287;28;20291;-56
2022/11/27 11:07:59;;;;;;;7.70;4.57;;;7.70;99.90;;;;;;5024786;28;20212;-56
2022/11/27 11:10:37;;;;;;;11.33;5.23;;;7.70;99.90;;;;;;5014589;28;20267;-57
2022/11/27 11:13:14;;;;;;;10.50;4.87;;;7.70;99.90;;;;;;5028638;28;22660;-56
2022/11/27 11:16:04;;;;;;;9.00;5.07;;;7.70;99.90;;;;;;5027471;28;20228;-56
2022/11/27 11:18:40;;;;;;;9.00;4.93;;;7.70;99.90;;;;;;5025473;28;20210;-56
2022/11/27 11:21:16;;;;;;;7.83;4.73;;;7.60;99.90;;;;;;5022078;28;20189;-56
2022/11/27 11:23:52;;;;;;;12.73;4.90;;;7.70;99.90;;;;;;5025063;28;20255;-56
2022/11/27 11:26:35;;;;;;;7.73;5.03;;;7.80;99.90;;;;;;5030935;28;20293;-56
2022/11/27 11:29:04;;;;;;;8.53;4.90;;;7.70;99.90;;;;;;5019527;28;20206;-56
2022/11/27 11:31:37;;;;;;;7.63;4.50;;;7.70;99.90;;;;;;5024527;28;20197;-56
2022/11/27 11:34:15;;;;;;;5.73;4.07;;;7.80;99.90;;;;;;5026346;28;20320;-56
2022/11/27 11:37:00;;;;;;;7.60;4.80;;;7.80;99.90;;;;;;5021425;28;20947;-56
2022/11/27 11:39:31;;;;;;;8.77;4.47;;;7.80;99.90;;;;;;5027159;28;20207;-56
2022/11/27 11:41:58;;;;;;;8.17;5.03;;;7.80;99.90;;;;;;5025291;28;20276;-61
2022/11/27 11:44:34;;;;;;;8.50;4.87;;;7.80;99.90;;;;;;5001504;28;20235;-57
2022/11/27 11:47:01;;;;;;;8.20;4.33;;;7.80;99.90;;;;;;5025837;28;20597;-57
2022/11/27 11:49:31;;;;;;;8.70;4.77;;;7.80;99.90;;;;;;5036331;28;20217;-57
2022/11/27 11:52:34;;;;;;;9.30;4.57;;;7.80;99.90;;;;;;5026758;28;20300;-57
2022/11/27 11:55:33;;;;;;;8.60;4.40;;;7.80;99.90;;;;;;5023404;28;20204;-57
2022/11/27 11:58:11;;;;;;;7.83;4.33;;;7.80;99.90;;;;;;5018951;28;20208;-57
2022/11/27 12:00:47;;;;;;;7.77;4.43;;;7.80;99.90;;;;;;5024870;28;21316;-62
2022/11/27 12:03:50;;;;;;;7.80;4.40;;;7.90;99.90;;;;;;5016015;28;20209;-60
2022/11/27 12:06:43;;;;;;;11.90;4.93;;;7.90;99.90;;;;;;5024898;28;20238;-63
2022/11/27 12:09:25;;;;;;;9.17;5.00;;;7.80;99.90;;;;;;5025928;28;21078;-61
2022/11/27 12:12:40;;;;;;;5.97;4.00;;;7.90;99.90;;;;;;5026535;28;20270;-61
2022/11/27 12:15:26;;;;;;;7.00;4.37;;;7.90;99.90;;;;;;5019255;28;20236;-63
2022/11/27 12:18:16;;;;;;;7.70;4.00;;;7.80;99.90;;;;;;5022629;28;20220;-63
2022/11/27 12:20:58;;;;;;;8.97;5.23;;;7.80;99.90;;;;;;5017812;28;21720;-63
2022/11/27 12:23:59;;;;;;;9.23;4.40;;;7.90;99.90;;;;;;5021998;28;20199;-56
2022/11/27 12:27:11;;;;;;;9.07;4.90;;;7.80;99.90;;;;;;5023233;28;20207;-56
2022/11/27 12:29:38;;;;;;;7.27;4.67;;;7.80;99.90;;;;;;5002364;28;20492;-57
2022/11/27 12:32:22;;;;;;;7.40;4.67;;;7.80;99.90;;;;;;4992222;28;20205;-56
2022/11/27 12:35:18;;;;;;;7.83;4.50;;;7.80;99.90;;;;;;5013761;28;20253;-55
2022/11/27 12:38:13;;;;;;;7.30;4.60;;;7.80;99.90;;;;;;5016863;28;20335;-56
2022/11/27 12:40:55;;;;;;;5.57;4.10;;;8.00;99.90;;;;;;5027695;28;20288;-55
2022/11/27 12:43:34;;;;;;;7.60;4.80;;;8.00;99.90;;;;;;5030431;28;20235;-56
2022/11/27 12:46:19;;;;;;;7.67;4.20;;;8.00;99.90;;;;;;5022486;28;20564;-55
2022/11/27 12:48:58;;;;;;;5.03;3.97;;;8.00;99.90;;;;;;5015677;28;21026;-57
2022/11/27 12:51:44;;;;;;;7.50;4.27;;;8.00;99.90;;;;;;5026342;28;20564;-56
2022/11/27 12:54:35;;;;;;;6.77;4.80;;;7.90;99.90;;;;;;5032266;28;20215;-56
2022/11/27 12:57:10;;;;;;;6.27;4.57;;;7.90;99.90;;;;;;5027674;28;20205;-56
2022/11/27 13:00:01;;;;;;;8.50;4.03;;;8.00;99.90;;;;;;5027021;28;20187;-56
2022/11/27 13:02:34;;;;;;;8.60;4.47;;;8.00;99.90;;;;;;5031543;28;20193;-55
2022/11/27 13:05:27;;;;;;;7.70;4.73;;;8.10;99.90;;;;;;5031540;28;20199;-55
2022/11/27 13:08:04;;;;;;;8.40;4.77;;;8.10;99.90;;;;;;5034299;28;20305;-55
2022/11/27 13:10:39;;;;;;;7.93;4.47;;;8.10;99.90;;;;;;5034991;28;20219;-55
2022/11/27 13:13:27;;;;;;;7.97;5.23;;;8.20;99.90;;;;;;5015891;28;20209;-55
2022/11/27 13:16:03;;;;;;;9.43;4.53;;;8.10;99.90;;;;;;5032847;28;21078;-55
2022/11/27 13:18:38;;;;;;;7.23;4.17;;;8.10;99.90;;;;;;5032967;28;20705;-56
2022/11/27 13:21:21;;;;;;;6.13;4.47;;;8.10;99.90;;;;;;5033632;28;20324;-55
2022/11/27 13:23:49;;;;;;;8.60;5.00;;;8.20;99.90;;;;;;5036262;28;21751;-56